Обухово

СКИДКИ НА СМАРТФОНЫ!

Карта отелей и гостиниц, располагающихся рядом с аэропортом Обухово :

Обухово
Гродно
53° 36' 7.1388" N, 24° 3' 14.2812" E
Код аэродрома ИКАО
UMMG
Код аэродрома RU
УММГ
Координаты
N53.60198° E024.05397°
Превышение над уровнем моря
135
Основная полоса
17/35
Курс магнитный
171,9/351,9
Длина основной ВПП
2560
Ширина основной ВПП
42
Покрытие основной ВПП
Твёрдое (бетон)
Освещение ВПП
Постоянное
Тип: 
Аэродром
Класс аэродрома: 
Международный
Принадлежность: 
ГА
Статус: 
Действующий
Страна: 
Беларусь
Город: 
Гродно
Дополнительная информация: 
Оператор: нет данных. Вызов таможенников-пограничников платный, по предварительной заявке. Цена $40 c одного ВС.
Погода: 

Авиационная погода в Гродно

Регион: 
Погода METAR: 
UMMG 190300Z 09002MPS CAVOK 19/16 Q1015 NOSIG
Время наблюдения
2022-08-19T03:00:00Z
Температура C
19.0
Точка росы
16.0
Направление ветра
90
Скорость ветра (узлы)
4
Метео видимость
6.21
Облачность
CAVOK
Нижняя граница облачности (футы)
Явления погоды
Условия полета
VFR
Аэропорт подробнее: 

Скидки на навигаторы!

Найти трансфер

С помощью этой формы Вы можете найти трансфер из аэропорта Обухово в город, аэропорт или вокзал:

Погода в аэропортах:

Авиационная погода в Миккели

Регион: 
Погода METAR: 
EFMI 190420Z AUTO 12003KT 9999 VCSH //////CB 20/19 Q1020
Время наблюдения
2022-08-19T04:20:00Z
Температура C
20.0
Точка росы
19.0
Направление ветра
120
Скорость ветра (узлы)
3
Метео видимость
6.21
Облачность
Нижняя граница облачности (футы)
Явления погоды
VCSH
Условия полета

Авиационная погода в аэропорту Новый

Регион: 
Погода METAR: 
UHHH 190400Z 32003MPS 280V360 9999 -SHRA SCT033CB 18/17 Q0996 R23R/290045 NOSIG RMK QFE741/0988
Время наблюдения
2022-08-19T04:00:00Z
Температура C
18.0
Точка росы
17.0
Направление ветра
320
Скорость ветра (узлы)
6
Метео видимость
6.21
Облачность
SCT
Нижняя граница облачности (футы)
3300
Явления погоды
-SHRA
Условия полета
VFR
Аэропорт подробнее: 
SCT – разбросанная отдельная облачность;
-SHRA - слабый ливневой дождь;

Авиационная погода в Сургуте

Регион: 
Погода METAR: 
USRR 190300Z 34004MPS 9999 -SHRA SCT010 BKN017CB 10/09 Q1021 R25/290060 NOSIG RMK QFE760
Время наблюдения
2022-08-19T03:00:00Z
Температура C
10.0
Точка росы
9.0
Направление ветра
340
Скорость ветра (узлы)
8
Метео видимость
6.21
Облачность
SCT
BKN
Нижняя граница облачности (футы)
1000
1700
Явления погоды
-SHRA
Условия полета
MVFR
Аэропорт подробнее: 
SCT – разбросанная отдельная облачность; BKN – значительная (рассеянная, разорванная) облачность;
-SHRA - слабый ливневой дождь;

Авиационная погода в Липецке

Регион: 
Погода METAR: 
UUOL 190400Z 06009MPS 9999 -RA BKN009 16/16 Q1016 R33/290150 NOSIG
Время наблюдения
2022-08-19T04:00:00Z
Температура C
16.0
Точка росы
16.0
Направление ветра
60
Скорость ветра (узлы)
17
Метео видимость
6.21
Облачность
BKN
Нижняя граница облачности (футы)
900
Явления погоды
-RA
Условия полета
IFR
Аэропорт подробнее: 
BKN – значительная (рассеянная, разорванная) облачность;
-RA - слабый дождь;